createdAt,value
2017-10-16T00:01:19.487Z,93.10
2017-10-16T00:03:47.738Z,93.10
2017-10-16T00:06:16.778Z,93.20
2017-10-16T00:08:45.024Z,93.20
2017-10-16T00:11:14.054Z,93.40
2017-10-16T00:13:42.311Z,93.40
2017-10-16T00:16:10.580Z,93.50
2017-10-16T00:18:39.599Z,93.20
2017-10-16T00:21:07.866Z,93.20
2017-10-16T00:23:36.883Z,92.80
2017-10-16T00:26:05.156Z,92.80
2017-10-16T00:28:33.411Z,93.10
2017-10-16T00:31:01.742Z,93.20
2017-10-16T00:33:30.024Z,93.30
2017-10-16T00:35:58.308Z,93.40
2017-10-16T00:38:27.908Z,93.80
2017-10-16T00:40:56.200Z,93.80
2017-10-16T00:43:24.451Z,94.00
2017-10-16T00:45:52.723Z,94.10
2017-10-16T00:48:21.810Z,94.50
2017-10-16T00:50:50.077Z,94.50
2017-10-16T00:53:18.334Z,94.70
2017-10-16T00:55:46.619Z,94.70
2017-10-16T00:58:14.890Z,95.00
2017-10-16T01:00:43.153Z,95.10
2017-10-16T01:03:11.399Z,95.20
2017-10-16T01:05:40.430Z,95.30
2017-10-16T01:08:08.731Z,95.30
2017-10-16T01:10:37.003Z,95.40
2017-10-16T01:13:05.246Z,95.40
2017-10-16T01:15:33.515Z,95.70
2017-10-16T01:18:02.556Z,95.60
2017-10-16T01:20:30.847Z,95.60
2017-10-16T01:22:59.223Z,95.40
2017-10-16T01:25:27.471Z,95.50
2017-10-16T01:27:56.607Z,95.70
2017-10-16T01:30:24.854Z,95.70
2017-10-16T01:32:53.162Z,95.80
2017-10-16T01:35:21.445Z,95.90
2017-10-16T01:37:49.715Z,95.80
2017-10-16T01:40:17.963Z,95.80
2017-10-16T01:42:46.993Z,96.20
2017-10-16T01:45:15.246Z,95.90
2017-10-16T01:47:43.585Z,96.20
2017-10-16T01:50:11.832Z,96.70
2017-10-16T01:52:41.706Z,97.00
2017-10-16T01:55:09.968Z,97.00
2017-10-16T01:57:38.241Z,97.30
2017-10-16T02:00:06.491Z,97.40
2017-10-16T02:02:35.540Z,97.20
2017-10-16T02:05:03.779Z,97.20
2017-10-16T02:07:32.914Z,97.50
2017-10-16T02:10:01.169Z,97.50
2017-10-16T02:12:29.497Z,97.50
2017-10-16T02:14:57.759Z,97.30
2017-10-16T02:17:26.023Z,97.30
2017-10-16T02:19:54.277Z,97.00
2017-10-16T02:22:23.327Z,96.80
2017-10-16T02:24:51.583Z,96.80
2017-10-16T02:27:19.842Z,96.80
2017-10-16T02:29:48.886Z,96.70
2017-10-16T02:32:17.151Z,96.70
2017-10-16T02:34:45.426Z,96.60
2017-10-16T02:37:13.725Z,96.60
2017-10-16T02:39:42.002Z,96.70
2017-10-16T02:42:10.285Z,96.70
2017-10-16T02:44:38.571Z,96.60
2017-10-16T02:47:06.826Z,96.60
2017-10-16T02:49:35.090Z,96.80
2017-10-16T02:52:03.346Z,96.90
2017-10-16T02:54:31.620Z,97.00
2017-10-16T02:56:59.871Z,97.20
2017-10-16T02:59:28.147Z,96.40
2017-10-16T03:01:56.401Z,96.50
2017-10-16T03:04:24.707Z,96.40
2017-10-16T03:06:52.963Z,96.30
2017-10-16T03:09:21.242Z,96.40
2017-10-16T03:11:49.493Z,96.30
2017-10-16T03:14:18.947Z,96.50
2017-10-16T03:16:47.204Z,96.50
2017-10-16T03:19:15.479Z,96.60
2017-10-16T03:21:44.495Z,96.60
2017-10-16T03:24:12.796Z,96.60
2017-10-16T03:26:41.063Z,96.40
2017-10-16T03:29:09.345Z,96.20
2017-10-16T03:31:37.634Z,96.20
2017-10-16T03:34:05.890Z,96.20
2017-10-16T03:36:34.919Z,96.20
2017-10-16T03:39:03.171Z,96.20
2017-10-16T03:41:31.448Z,96.20
2017-10-16T03:44:00.478Z,96.20
2017-10-16T03:46:28.764Z,96.10
2017-10-16T03:48:57.016Z,96.20
2017-10-16T03:51:25.323Z,96.20
2017-10-16T03:53:53.608Z,96.30
2017-10-16T03:56:21.862Z,96.30
2017-10-16T03:58:50.114Z,96.30
2017-10-16T04:01:19.147Z,96.60
2017-10-16T04:03:47.400Z,96.30
2017-10-16T04:06:16.441Z,96.50
2017-10-16T04:08:44.779Z,96.50
2017-10-16T04:11:13.812Z,96.30
2017-10-16T04:13:42.074Z,96.30
2017-10-16T04:16:11.110Z,96.60
2017-10-16T04:18:39.367Z,96.60
2017-10-16T04:21:07.636Z,96.70
2017-10-16T04:23:36.650Z,97.60
2017-10-16T04:26:04.954Z,97.60
2017-10-16T04:28:33.206Z,97.80
2017-10-16T04:31:01.552Z,98.00
2017-10-16T04:33:29.807Z,98.30
2017-10-16T04:35:58.070Z,98.40
2017-10-16T04:38:26.330Z,98.50
2017-10-16T04:40:55.366Z,98.70
2017-10-16T04:43:23.615Z,98.70
2017-10-16T04:45:51.864Z,98.60
2017-10-16T04:48:20.920Z,98.80
2017-10-16T04:50:49.194Z,98.40
2017-10-16T04:53:17.468Z,98.40
2017-10-16T04:55:45.766Z,98.40
2017-10-16T04:58:14.041Z,98.60
2017-10-16T05:00:42.291Z,98.60
2017-10-16T05:03:10.570Z,98.70
2017-10-16T05:05:39.578Z,98.80
2017-10-16T05:08:07.891Z,98.90
2017-10-16T05:10:36.183Z,98.90
2017-10-16T05:13:04.557Z,99.10
2017-10-16T05:15:32.802Z,99.10
2017-10-16T05:18:01.075Z,99.10
2017-10-16T05:20:30.092Z,99.20
2017-10-16T05:22:58.367Z,99.20
2017-10-16T05:25:26.619Z,99.20
2017-10-16T05:27:54.962Z,99.10
2017-10-16T05:30:23.238Z,99.10
2017-10-16T05:32:51.514Z,99.10
2017-10-16T05:35:19.812Z,98.60
2017-10-16T05:37:48.191Z,98.20
2017-10-16T05:40:16.433Z,98.30
2017-10-16T05:42:44.701Z,98.40
2017-10-16T05:45:13.716Z,98.30
2017-10-16T05:47:42.040Z,98.30
2017-10-16T05:50:10.306Z,98.20
2017-10-16T05:52:38.592Z,98.30
2017-10-16T05:55:06.903Z,98.30
2017-10-16T05:57:35.188Z,98.20
2017-10-16T06:00:03.455Z,98.40
2017-10-16T06:02:33.218Z,97.90
2017-10-16T06:05:01.505Z,98.20
2017-10-16T06:07:29.759Z,98.20
2017-10-16T06:09:58.808Z,98.50
2017-10-16T06:12:27.063Z,98.50
2017-10-16T06:14:55.329Z,98.70
2017-10-16T06:17:24.354Z,99.00
2017-10-16T06:19:52.627Z,99.00
2017-10-16T06:22:20.901Z,99.10
2017-10-16T06:24:49.179Z,98.90
2017-10-16T06:27:17.491Z,98.50
2017-10-16T06:29:45.775Z,98.30
2017-10-16T06:32:14.063Z,98.00
2017-10-16T06:34:42.335Z,98.20
2017-10-16T06:37:10.591Z,98.10
2017-10-16T06:39:38.859Z,98.10
2017-10-16T06:42:07.898Z,98.50
2017-10-16T06:44:36.168Z,98.50
2017-10-16T06:47:04.463Z,98.70
2017-10-16T06:49:32.742Z,99.00
2017-10-16T06:52:00.990Z,99.20
2017-10-16T06:54:29.266Z,99.30
2017-10-16T06:56:57.519Z,99.30
2017-10-16T06:59:27.289Z,99.10
2017-10-16T07:01:55.588Z,99.10
2017-10-16T07:04:23.859Z,99.00
2017-10-16T07:06:52.167Z,99.20
2017-10-16T07:09:20.401Z,99.20
2017-10-16T07:11:48.672Z,99.10
2017-10-16T07:14:17.690Z,99.30
2017-10-16T07:16:45.973Z,99.30
2017-10-16T07:19:14.259Z,99.20
2017-10-16T07:21:42.543Z,99.20
2017-10-16T07:24:10.979Z,99.00
2017-10-16T07:26:40.032Z,98.70
2017-10-16T07:29:08.312Z,98.70
2017-10-16T07:31:36.690Z,98.80
2017-10-16T07:34:04.940Z,99.10
2017-10-16T07:36:33.255Z,99.00
2017-10-16T07:39:01.512Z,99.00
2017-10-16T07:41:29.823Z,99.00
2017-10-16T07:43:58.078Z,99.30
2017-10-16T07:46:26.344Z,99.20
2017-10-16T07:48:55.362Z,99.10
2017-10-16T07:51:23.658Z,99.10
2017-10-16T07:53:51.911Z,99.10
2017-10-16T07:56:20.239Z,99.10
2017-10-16T07:58:48.502Z,99.00
2017-10-16T08:01:16.772Z,99.20
2017-10-16T08:03:45.079Z,98.70
2017-10-16T08:06:13.348Z,98.40
2017-10-16T08:08:41.598Z,98.30
2017-10-16T08:11:10.737Z,98.10
2017-10-16T08:13:38.987Z,98.10
2017-10-16T08:16:07.302Z,98.00
2017-10-16T08:18:35.551Z,97.80
2017-10-16T08:21:03.814Z,97.80
2017-10-16T08:23:32.847Z,97.60
2017-10-16T08:26:01.104Z,97.60
2017-10-16T08:28:29.370Z,97.90
2017-10-16T08:30:58.418Z,97.70
2017-10-16T08:33:26.683Z,97.70
2017-10-16T08:35:54.983Z,97.70
2017-10-16T08:38:23.251Z,97.90
2017-10-16T08:40:51.497Z,97.30
2017-10-16T08:43:20.543Z,97.20
2017-10-16T08:45:48.924Z,97.20
2017-10-16T08:48:20.518Z,96.50
2017-10-16T08:50:52.042Z,96.00
2017-10-16T08:53:20.403Z,95.00
2017-10-16T08:55:48.768Z,94.30
2017-10-16T08:58:17.966Z,93.10
2017-10-16T09:00:46.310Z,93.10
2017-10-16T09:03:14.579Z,92.50
2017-10-16T09:05:42.858Z,91.70
2017-10-16T09:08:11.886Z,91.60
2017-10-16T09:10:40.283Z,91.50
2017-10-16T09:13:08.646Z,91.00
2017-10-16T09:15:36.894Z,91.10
2017-10-16T09:18:05.265Z,90.30
2017-10-16T09:20:33.848Z,90.20
2017-10-16T09:23:03.301Z,89.60
2017-10-16T09:25:31.602Z,89.70
2017-10-16T09:28:02.015Z,89.10
2017-10-16T09:30:32.444Z,88.30
2017-10-16T09:33:02.320Z,88.30
2017-10-16T09:35:30.633Z,88.30
2017-10-16T09:37:59.137Z,88.70
2017-10-16T09:40:27.820Z,87.50
2017-10-16T09:42:56.135Z,85.50
2017-10-16T09:45:25.162Z,84.60
2017-10-16T09:47:53.454Z,84.60
2017-10-16T09:50:21.732Z,83.10
2017-10-16T09:52:50.009Z,81.80
2017-10-16T09:55:18.271Z,82.00
2017-10-16T09:57:46.940Z,81.70
2017-10-16T10:00:15.363Z,82.00
2017-10-16T10:02:43.622Z,81.00
2017-10-16T10:05:11.885Z,80.70
2017-10-16T10:07:40.911Z,80.40
2017-10-16T10:10:09.177Z,80.40
2017-10-16T10:12:37.437Z,79.40
2017-10-16T10:15:05.771Z,79.60
2017-10-16T10:17:34.022Z,77.50
2017-10-16T10:20:02.292Z,77.50
2017-10-16T10:22:31.328Z,77.00
2017-10-16T10:24:59.591Z,76.90
2017-10-16T10:27:27.903Z,76.70
2017-10-16T10:29:56.180Z,75.90
2017-10-16T10:32:24.431Z,75.10
2017-10-16T10:34:52.701Z,74.70
2017-10-16T10:37:21.730Z,74.40
2017-10-16T10:39:49.995Z,74.40
2017-10-16T10:42:18.254Z,75.00
2017-10-16T10:44:46.589Z,74.50
2017-10-16T10:47:14.880Z,74.00
2017-10-16T10:49:43.171Z,74.30
2017-10-16T10:52:11.739Z,73.80
2017-10-16T10:54:39.977Z,73.60
2017-10-16T10:57:09.019Z,73.60
2017-10-16T10:59:37.306Z,73.60
2017-10-16T11:02:05.583Z,73.20
2017-10-16T11:04:33.838Z,73.10
2017-10-16T11:07:02.863Z,72.90
2017-10-16T11:09:31.110Z,72.80
2017-10-16T11:12:00.142Z,71.70
2017-10-16T11:14:28.391Z,71.50
2017-10-16T11:16:57.428Z,72.00
2017-10-16T11:19:25.713Z,72.00
2017-10-16T11:21:53.993Z,71.80
2017-10-16T11:24:22.240Z,70.70
2017-10-16T11:26:50.510Z,70.70
2017-10-16T11:29:19.550Z,70.20
2017-10-16T11:31:47.822Z,70.10
2017-10-16T11:34:16.064Z,70.50
2017-10-16T11:36:45.099Z,70.00
2017-10-16T11:39:13.396Z,70.00
2017-10-16T11:41:41.692Z,69.90
2017-10-16T11:44:09.952Z,70.20
2017-10-16T11:46:38.237Z,70.10
2017-10-16T11:49:06.518Z,70.70
2017-10-16T11:51:34.780Z,71.20
2017-10-16T11:54:03.034Z,70.80
2017-10-16T11:56:32.085Z,70.80
2017-10-16T11:59:00.326Z,70.80
2017-10-16T12:01:29.364Z,71.90
2017-10-16T12:03:57.654Z,71.90
2017-10-16T12:06:25.907Z,72.20
2017-10-16T12:08:54.213Z,72.40
2017-10-16T12:11:22.646Z,72.10
2017-10-16T12:13:51.690Z,72.50
2017-10-16T12:16:19.943Z,72.50
2017-10-16T12:18:48.256Z,73.10
2017-10-16T12:21:16.512Z,73.20
2017-10-16T12:23:44.790Z,72.70
2017-10-16T12:26:13.814Z,72.50
2017-10-16T12:28:42.096Z,72.50
2017-10-16T12:31:10.370Z,72.60
2017-10-16T12:33:38.832Z,73.20
2017-10-16T12:36:07.865Z,73.30
2017-10-16T12:38:36.124Z,73.20
2017-10-16T12:41:04.418Z,73.60
2017-10-16T12:43:32.685Z,73.30
2017-10-16T12:46:00.936Z,73.40
2017-10-16T12:48:29.262Z,73.20
2017-10-16T12:50:57.514Z,72.60
2017-10-16T12:53:25.782Z,72.50
2017-10-16T12:55:54.833Z,70.60
2017-10-16T12:58:23.102Z,70.50
2017-10-16T13:00:51.362Z,70.70
2017-10-16T13:03:19.669Z,71.70
2017-10-16T13:05:47.958Z,70.40
2017-10-16T13:08:16.237Z,70.10
2017-10-16T13:10:44.486Z,69.30
2017-10-16T13:13:13.519Z,70.10
2017-10-16T13:15:41.775Z,70.10
2017-10-16T13:18:10.791Z,69.70
2017-10-16T13:20:39.046Z,69.80
2017-10-16T13:23:08.078Z,70.10
2017-10-16T13:25:36.359Z,70.00
2017-10-16T13:28:04.614Z,70.10
2017-10-16T13:30:32.880Z,69.80
2017-10-16T13:33:01.906Z,70.60
2017-10-16T13:35:30.172Z,70.50
2017-10-16T13:37:58.491Z,70.60
2017-10-16T13:40:26.766Z,70.40
2017-10-16T13:42:55.048Z,69.00
2017-10-16T13:45:23.315Z,70.10
2017-10-16T13:47:51.558Z,70.20
2017-10-16T13:50:20.592Z,71.10
2017-10-16T13:52:48.843Z,71.10
2017-10-16T13:55:17.877Z,71.10
2017-10-16T13:57:46.279Z,71.00
2017-10-16T14:00:14.533Z,71.30
2017-10-16T14:02:42.783Z,70.70
2017-10-16T14:05:11.050Z,71.40
2017-10-16T14:07:39.317Z,72.10
2017-10-16T14:10:07.581Z,71.60
2017-10-16T14:12:35.830Z,71.70
2017-10-16T14:15:04.106Z,71.60
2017-10-16T14:17:33.223Z,71.40
2017-10-16T14:20:01.513Z,71.80
2017-10-16T14:22:29.767Z,72.30
2017-10-16T14:24:58.788Z,72.50
2017-10-16T14:27:27.058Z,72.40
2017-10-16T14:29:55.310Z,72.40
2017-10-16T14:32:23.590Z,73.00
2017-10-16T14:34:51.836Z,73.90
2017-10-16T14:37:20.111Z,74.20
2017-10-16T14:39:48.383Z,74.10
2017-10-16T14:42:20.248Z,74.20
2017-10-16T14:44:48.495Z,74.80
2017-10-16T14:47:17.527Z,75.10
2017-10-16T14:49:45.781Z,75.00
2017-10-16T14:52:14.808Z,75.50
2017-10-16T14:54:43.056Z,75.50
2017-10-16T14:57:12.090Z,76.20
2017-10-16T14:59:40.338Z,76.20
2017-10-16T15:02:08.651Z,76.60
2017-10-16T15:04:36.927Z,76.50
2017-10-16T15:07:05.213Z,76.00
2017-10-16T15:09:33.509Z,76.30
2017-10-16T15:12:01.866Z,76.60
2017-10-16T15:14:30.255Z,77.00
2017-10-16T15:16:58.523Z,77.30
2017-10-16T15:19:26.776Z,77.40
2017-10-16T15:21:55.818Z,78.10
2017-10-16T15:24:24.075Z,77.90
2017-10-16T15:26:52.379Z,78.10
2017-10-16T15:29:21.395Z,78.80
2017-10-16T15:31:49.706Z,78.80
2017-10-16T15:34:17.962Z,79.10
2017-10-16T15:36:46.225Z,79.30
2017-10-16T15:39:14.482Z,79.00
2017-10-16T15:41:42.755Z,79.20
2017-10-16T15:44:11.795Z,79.90
2017-10-16T15:46:40.039Z,79.10
2017-10-16T15:49:09.088Z,79.80
2017-10-16T15:51:37.455Z,79.80
2017-10-16T15:54:06.683Z,79.90
2017-10-16T15:56:35.039Z,80.20
2017-10-16T15:59:03.310Z,80.40
2017-10-16T16:01:31.564Z,80.30
2017-10-16T16:03:59.879Z,80.40
2017-10-16T16:06:28.151Z,80.50
2017-10-16T16:08:56.418Z,81.00
2017-10-16T16:11:24.891Z,81.10
2017-10-16T16:13:53.297Z,81.20
2017-10-16T16:16:21.556Z,81.30
2017-10-16T16:18:49.875Z,81.70
2017-10-16T16:21:18.122Z,82.20
2017-10-16T16:23:46.425Z,82.70
2017-10-16T16:26:14.671Z,82.90
2017-10-16T16:28:43.811Z,83.60
2017-10-16T16:31:12.091Z,83.60
2017-10-16T16:33:40.358Z,83.90
2017-10-16T16:36:08.614Z,84.40
2017-10-16T16:38:37.758Z,85.20
2017-10-16T16:41:06.007Z,85.10
2017-10-16T16:43:34.332Z,85.40
2017-10-16T16:46:02.637Z,85.50
2017-10-16T16:48:30.874Z,85.90
2017-10-16T16:50:59.137Z,86.40
2017-10-16T16:53:27.382Z,86.70
2017-10-16T16:55:55.723Z,86.80
2017-10-16T16:58:24.001Z,88.10
2017-10-16T17:00:52.279Z,87.20
2017-10-16T17:03:20.519Z,87.40
2017-10-16T17:05:49.549Z,87.70
2017-10-16T17:08:17.798Z,87.70
2017-10-16T17:10:47.019Z,88.10
2017-10-16T17:13:16.042Z,88.50
2017-10-16T17:15:44.306Z,88.30
2017-10-16T17:18:12.554Z,88.50
2017-10-16T17:20:41.818Z,89.20
2017-10-16T17:23:10.065Z,89.20
2017-10-16T17:25:38.332Z,89.60
2017-10-16T17:28:07.379Z,90.10
2017-10-16T17:30:35.642Z,90.10
2017-10-16T17:33:03.890Z,90.20
2017-10-16T17:35:32.939Z,90.30
2017-10-16T17:38:01.217Z,90.30
2017-10-16T17:40:29.490Z,90.40
2017-10-16T17:42:57.793Z,90.50
2017-10-16T17:45:26.204Z,90.60
2017-10-16T17:47:54.434Z,90.60
2017-10-16T17:50:22.707Z,90.70
2017-10-16T17:52:50.962Z,90.80
2017-10-16T17:55:20.717Z,90.80
2017-10-16T17:57:49.100Z,90.80
2017-10-16T18:00:17.384Z,90.80
2017-10-16T18:02:45.659Z,90.80
2017-10-16T18:05:13.909Z,90.70
2017-10-16T18:07:42.944Z,90.70
2017-10-16T18:10:11.227Z,90.60
2017-10-16T18:12:39.496Z,90.60
2017-10-16T18:15:07.744Z,90.60
2017-10-16T18:17:36.770Z,90.60
2017-10-16T18:20:05.015Z,90.60
2017-10-16T18:22:34.060Z,90.80
2017-10-16T18:25:02.326Z,90.80
2017-10-16T18:27:30.604Z,90.80
2017-10-16T18:29:58.872Z,90.70
2017-10-16T18:32:27.135Z,90.70
2017-10-16T18:34:56.149Z,90.90
2017-10-16T18:37:24.418Z,90.90
2017-10-16T18:39:53.471Z,90.90
2017-10-16T18:42:21.744Z,90.90
2017-10-16T18:44:50.190Z,91.00
2017-10-16T18:47:19.221Z,90.70
2017-10-16T18:49:47.507Z,90.60
2017-10-16T18:52:15.881Z,90.60
2017-10-16T18:54:44.219Z,90.70
2017-10-16T18:57:12.530Z,90.70
2017-10-16T18:59:40.782Z,90.80
2017-10-16T19:02:09.828Z,91.00
2017-10-16T19:04:38.100Z,90.80
2017-10-16T19:07:06.379Z,90.90
2017-10-16T19:09:34.630Z,90.90
2017-10-16T19:12:02.906Z,90.80
2017-10-16T19:14:31.244Z,91.20
2017-10-16T19:16:59.560Z,91.20
2017-10-16T19:19:27.784Z,90.80
2017-10-16T19:21:56.089Z,90.70
2017-10-16T19:24:24.337Z,90.70
2017-10-16T19:26:52.618Z,90.70
2017-10-16T19:29:21.651Z,90.90
2017-10-16T19:31:49.918Z,90.90
2017-10-16T19:34:18.218Z,90.90
2017-10-16T19:36:46.495Z,90.90
2017-10-16T19:39:14.874Z,91.00
2017-10-16T19:41:43.142Z,90.90
2017-10-16T19:44:11.470Z,90.90
2017-10-16T19:46:40.275Z,90.90
2017-10-16T19:49:09.302Z,90.90
2017-10-16T19:51:38.335Z,90.90
2017-10-16T19:54:06.614Z,90.90
2017-10-16T19:56:34.942Z,90.90
2017-10-16T19:59:03.284Z,91.00
2017-10-16T20:01:31.546Z,91.00
2017-10-16T20:03:59.848Z,90.90
2017-10-16T20:06:28.110Z,91.00
2017-10-16T20:08:56.402Z,91.00
2017-10-16T20:11:24.659Z,91.10
2017-10-16T20:13:52.979Z,91.00
2017-10-16T20:16:21.227Z,91.00
2017-10-16T20:18:49.490Z,91.00
2017-10-16T20:21:18.545Z,91.20
2017-10-16T20:23:46.913Z,91.20
2017-10-16T20:26:15.201Z,91.40
2017-10-16T20:28:43.470Z,91.60
2017-10-16T20:31:11.714Z,91.70
2017-10-16T20:33:40.748Z,91.90
2017-10-16T20:36:08.993Z,91.90
2017-10-16T20:38:38.078Z,92.10
2017-10-16T20:41:07.143Z,92.10
2017-10-16T20:43:35.423Z,92.20
2017-10-16T20:46:03.701Z,92.30
2017-10-16T20:48:31.969Z,92.40
2017-10-16T20:51:00.231Z,92.40
2017-10-16T20:53:29.266Z,92.50
2017-10-16T20:55:57.519Z,92.50
2017-10-16T20:58:26.654Z,92.40
2017-10-16T21:00:54.918Z,92.40
2017-10-16T21:03:23.214Z,92.30
2017-10-16T21:05:51.506Z,92.20
2017-10-16T21:08:19.768Z,92.30
2017-10-16T21:10:48.018Z,92.30
2017-10-16T21:13:17.049Z,92.20
2017-10-16T21:15:45.349Z,92.20
2017-10-16T21:18:13.727Z,92.10
2017-10-16T21:20:41.979Z,91.90
2017-10-16T21:23:10.394Z,91.90
2017-10-16T21:25:38.645Z,91.90
2017-10-16T21:28:06.917Z,91.90
2017-10-16T21:30:35.173Z,91.90
2017-10-16T21:33:04.978Z,92.00
2017-10-16T21:35:33.206Z,92.00
2017-10-16T21:38:01.527Z,92.10
2017-10-16T21:40:29.808Z,92.20
2017-10-16T21:42:58.176Z,92.30
2017-10-16T21:45:26.457Z,92.40
2017-10-16T21:47:54.740Z,92.50
2017-10-16T21:50:22.994Z,92.60
2017-10-16T21:52:51.261Z,92.70
2017-10-16T21:55:19.513Z,92.80
2017-10-16T21:57:48.561Z,93.20
2017-10-16T22:00:16.859Z,92.80
2017-10-16T22:02:45.123Z,92.80
2017-10-16T22:05:13.453Z,92.10
2017-10-16T22:07:41.748Z,91.50
2017-10-16T22:10:10.023Z,91.40
2017-10-16T22:12:38.365Z,91.90
2017-10-16T22:15:06.669Z,92.20
2017-10-16T22:17:34.935Z,92.50
2017-10-16T22:20:03.226Z,92.70
2017-10-16T22:22:31.503Z,92.70
2017-10-16T22:24:59.788Z,92.50
2017-10-16T22:27:28.149Z,92.20
2017-10-16T22:29:56.402Z,92.40
2017-10-16T22:32:25.457Z,92.80
2017-10-16T22:34:53.764Z,92.80
2017-10-16T22:37:22.117Z,92.90
2017-10-16T22:39:50.368Z,92.90
2017-10-16T22:42:18.862Z,92.80
2017-10-16T22:44:47.148Z,92.90
2017-10-16T22:47:33.067Z,93.00
2017-10-16T22:50:01.872Z,93.00
2017-10-16T22:52:30.124Z,93.00
2017-10-16T22:54:58.375Z,93.00
2017-10-16T22:57:27.441Z,93.10
2017-10-16T22:59:55.807Z,93.10
2017-10-16T23:02:24.056Z,93.10
2017-10-16T23:04:52.362Z,93.10
2017-10-16T23:07:20.646Z,93.10
2017-10-16T23:09:48.915Z,93.20
2017-10-16T23:12:17.196Z,93.20
2017-10-16T23:14:45.464Z,93.30
2017-10-16T23:17:13.728Z,93.40
2017-10-16T23:19:42.770Z,93.50
2017-10-16T23:22:11.037Z,93.50
2017-10-16T23:24:39.312Z,93.60
2017-10-16T23:27:07.602Z,93.60
2017-10-16T23:29:35.874Z,93.50
2017-10-16T23:32:04.127Z,93.60
2017-10-16T23:34:33.248Z,93.40
2017-10-16T23:37:01.496Z,93.40
2017-10-16T23:39:30.532Z,93.00
2017-10-16T23:41:58.786Z,92.90
2017-10-16T23:44:27.820Z,92.80
2017-10-16T23:46:56.071Z,92.80
2017-10-16T23:49:25.110Z,92.60
2017-10-16T23:51:53.351Z,92.60
2017-10-16T23:54:22.489Z,93.40
2017-10-16T23:56:50.772Z,93.40
2017-10-16T23:59:19.050Z,93.70
